createdAt,value
2019-05-07T04:02:06.876Z,0
2019-05-07T04:05:37.810Z,0
2019-05-07T04:09:08.894Z,0
2019-05-07T04:12:39.789Z,0
2019-05-07T04:16:13.468Z,0
2019-05-07T04:19:43.774Z,16.700001
2019-05-07T04:23:13.461Z,16.700001
2019-05-07T04:26:42.910Z,16.700001
2019-05-07T04:30:12.690Z,16.700001
2019-05-07T04:33:43.642Z,16.700001
2019-05-07T04:37:13.133Z,13.6
2019-05-07T04:40:43.132Z,13.6
2019-05-07T04:44:10.460Z,13.6
2019-05-07T04:47:47.621Z,13.6
2019-05-07T04:51:16.286Z,13.6
2019-05-07T04:54:46.223Z,12.1
2019-05-07T04:58:17.160Z,13.4
2019-05-07T05:01:48.193Z,13.4
2019-05-07T05:05:19.128Z,13.4
2019-05-07T05:08:53.046Z,13.4
2019-05-07T05:12:22.424Z,13.4
2019-05-07T05:15:50.002Z,17.6
2019-05-07T05:19:19.978Z,17.6
2019-05-07T05:22:49.924Z,17.6
2019-05-07T05:26:21.848Z,17.6
2019-05-07T05:29:51.839Z,17.6
2019-05-07T05:33:19.894Z,16
2019-05-07T05:36:49.904Z,16
2019-05-07T05:40:19.891Z,16
2019-05-07T05:43:49.842Z,16
2019-05-07T05:47:21.966Z,16
2019-05-07T05:50:49.732Z,14.2
2019-05-07T05:54:18.714Z,14.9
2019-05-07T05:57:48.642Z,14.9
2019-05-07T06:01:19.602Z,14.9
2019-05-07T06:04:52.565Z,14.9
2019-05-07T06:08:23.835Z,14.9
2019-05-07T06:11:51.983Z,15.5
2019-05-07T06:15:22.183Z,15.5
2019-05-07T06:18:52.523Z,15.5
2019-05-07T06:22:22.413Z,15.5
2019-05-07T06:25:52.515Z,15.5
2019-05-07T06:29:25.247Z,20.299999
2019-05-07T06:32:56.169Z,20.299999
2019-05-07T06:36:27.105Z,20.299999
2019-05-07T06:39:58.043Z,20.299999
2019-05-07T06:43:28.964Z,20.299999
2019-05-07T06:46:57.939Z,24.799999
2019-05-07T06:50:27.879Z,26.5
2019-05-07T06:53:57.822Z,26.5
2019-05-07T06:57:28.841Z,26.5
2019-05-07T07:00:58.779Z,26.5
2019-05-07T07:04:27.756Z,16.5
2019-05-07T07:07:57.687Z,14.4
2019-05-07T07:11:28.683Z,14.4
2019-05-07T07:14:59.657Z,14.4
2019-05-07T07:18:29.592Z,14.4
2019-05-07T07:21:59.541Z,14.4
2019-05-07T07:25:32.316Z,13.3
2019-05-07T07:29:01.945Z,13.3
2019-05-07T07:32:31.731Z,13.3
2019-05-07T07:35:59.867Z,13.3
2019-05-07T07:39:29.839Z,13.3
2019-05-07T07:42:58.792Z,15.7
2019-05-07T07:46:28.733Z,18.299999
2019-05-07T07:49:58.775Z,18.299999
2019-05-07T07:53:28.701Z,18.299999
2019-05-07T07:57:02.266Z,18.299999
2019-05-07T08:00:33.593Z,15
2019-05-07T08:04:02.903Z,15.1
2019-05-07T08:07:33.114Z,15.1
2019-05-07T08:11:02.528Z,15.1
2019-05-07T08:14:32.584Z,15.1
2019-05-07T08:18:02.904Z,15.1
2019-05-07T08:21:33.145Z,20.4
2019-05-07T08:25:03.907Z,20.4
2019-05-07T08:28:34.841Z,20.4
2019-05-07T08:32:05.790Z,20.4
2019-05-07T08:35:36.735Z,20.4
2019-05-07T08:39:06.694Z,8.7
2019-05-07T08:42:36.765Z,9.3
2019-05-07T08:46:07.693Z,9.3
2019-05-07T08:49:43.289Z,9.3
2019-05-07T08:53:13.158Z,9.3
2019-05-07T08:56:42.307Z,9.6
2019-05-07T09:00:12.316Z,9.4
2019-05-07T09:03:42.389Z,9.4
2019-05-07T09:07:12.769Z,9.4
2019-05-07T09:10:42.190Z,9.4
2019-05-07T09:14:12.454Z,9.4
2019-05-07T09:17:42.263Z,12.7
2019-05-07T09:21:12.492Z,12.7
2019-05-07T09:24:42.365Z,12.7
2019-05-07T09:28:11.859Z,12.7
2019-05-07T09:31:42.031Z,12.7
2019-05-07T09:35:10.037Z,12.6
2019-05-07T09:38:38.992Z,11.9
2019-05-07T09:42:08.946Z,11.9
2019-05-07T09:45:38.895Z,11.9
2019-05-07T09:49:09.057Z,11.9
2019-05-07T09:52:37.893Z,12.5
2019-05-07T09:56:07.837Z,11.2
2019-05-07T09:59:38.786Z,11.2
2019-05-07T10:03:08.747Z,11.2
2019-05-07T10:06:38.706Z,11.2
2019-05-07T10:10:11.774Z,11.2
2019-05-07T10:13:39.585Z,9.7
2019-05-07T10:17:09.549Z,9.7
2019-05-07T10:20:41.966Z,9.7
2019-05-07T10:24:09.604Z,9.7
2019-05-07T10:27:41.656Z,9.7
2019-05-07T10:31:08.456Z,7.5
2019-05-07T10:34:37.401Z,8.5
2019-05-07T10:38:08.365Z,8.5
2019-05-07T10:41:38.335Z,8.5
2019-05-07T10:45:09.267Z,8.5
2019-05-07T10:48:38.231Z,10.8
2019-05-07T10:52:08.193Z,9.8
2019-05-07T10:55:39.119Z,9.8
2019-05-07T10:59:09.229Z,9.8
2019-05-07T11:02:39.370Z,9.8
2019-05-07T11:06:09.193Z,9.8
2019-05-07T11:09:39.141Z,8.8
2019-05-07T11:13:09.115Z,8.8
2019-05-07T11:16:39.274Z,8.8
2019-05-07T11:20:09.161Z,8.8
2019-05-07T11:23:39.151Z,8.8
2019-05-07T11:27:08.132Z,5.5
2019-05-07T11:30:38.074Z,5.5
2019-05-07T11:34:09.201Z,5.5
2019-05-07T11:37:39.087Z,5.5
2019-05-07T11:41:09.063Z,5.5
2019-05-07T11:44:38.021Z,6.6
2019-05-07T11:48:08.977Z,6.7
2019-05-07T11:51:39.944Z,6.7
2019-05-07T11:55:11.919Z,6.7
2019-05-07T11:58:39.917Z,6.7
2019-05-07T12:02:12.016Z,6.7
2019-05-07T12:05:42.117Z,8.1
2019-05-07T12:09:11.947Z,8.1
2019-05-07T12:12:39.846Z,8.1
2019-05-07T12:16:11.984Z,8.1
2019-05-07T12:19:43.539Z,8.1
2019-05-07T12:23:08.776Z,8.2
2019-05-07T12:26:37.747Z,7.7
2019-05-07T12:30:07.699Z,7.7
2019-05-07T12:33:39.642Z,7.7
2019-05-07T12:37:12.231Z,7.7
2019-05-07T12:40:41.775Z,10.9
2019-05-07T12:44:09.596Z,10
2019-05-07T12:47:39.584Z,10
2019-05-07T12:51:09.576Z,10
2019-05-07T12:54:42.034Z,10
2019-05-07T12:58:12.587Z,10
2019-05-07T13:01:42.227Z,6.6
2019-05-07T13:05:12.027Z,6.6
2019-05-07T13:08:43.807Z,6.6
2019-05-07T13:12:13.941Z,6.6
2019-05-07T13:15:44.916Z,6.6
2019-05-07T13:19:15.008Z,5.5
2019-05-07T13:22:44.960Z,5.6
2019-05-07T13:26:14.946Z,5.6
2019-05-07T13:29:46.892Z,5.6
2019-05-07T13:33:17.854Z,5.6
2019-05-07T13:36:46.966Z,5.3
2019-05-07T13:40:17.911Z,5.3
2019-05-07T13:43:48.893Z,5.3
2019-05-07T13:47:18.925Z,5.3
2019-05-07T13:50:49.099Z,5.3
2019-05-07T13:54:18.929Z,5.3
2019-05-07T13:57:48.881Z,4.8
2019-05-07T14:01:18.863Z,4.8
2019-05-07T14:04:48.867Z,4.8
2019-05-07T14:08:19.895Z,4.8
2019-05-07T14:11:49.855Z,4.8
2019-05-07T14:15:19.843Z,6.1
2019-05-07T14:18:48.803Z,5.6
2019-05-07T14:22:22.479Z,5.6
2019-05-07T14:25:52.819Z,5.6
2019-05-07T14:29:24.751Z,5.6
2019-05-07T14:32:52.705Z,4.2
2019-05-07T14:36:22.364Z,5
2019-05-07T14:39:51.828Z,5
2019-05-07T14:43:22.000Z,5
2019-05-07T14:46:55.559Z,5
2019-05-07T14:50:26.526Z,5
2019-05-07T14:53:56.483Z,7.2
2019-05-07T14:57:27.480Z,7.2
2019-05-07T15:00:57.523Z,7.2
2019-05-07T15:04:28.465Z,7.2
2019-05-07T15:08:08.142Z,7.2
2019-05-07T15:11:31.760Z,6.6
2019-05-07T15:15:02.150Z,6
2019-05-07T15:18:32.205Z,6
2019-05-07T15:22:02.031Z,6
2019-05-07T15:25:31.964Z,6
2019-05-07T15:28:59.313Z,2.9
2019-05-07T15:32:28.387Z,3.3
2019-05-07T15:35:58.363Z,3.3
2019-05-07T15:39:28.323Z,3.3
2019-05-07T15:42:58.267Z,3.3
2019-05-07T15:46:29.197Z,3.3
2019-05-07T15:49:59.588Z,5.3
2019-05-07T15:53:29.447Z,5.3
2019-05-07T15:56:59.432Z,5.3
2019-05-07T16:00:29.395Z,5.3
2019-05-07T16:04:02.562Z,5.3
2019-05-07T16:07:29.547Z,7.1
2019-05-07T16:11:01.530Z,7
2019-05-07T16:14:32.065Z,7
2019-05-07T16:18:02.763Z,7
2019-05-07T16:21:32.441Z,7
2019-05-07T16:25:04.962Z,5.2
2019-05-07T16:28:32.282Z,5.2
2019-05-07T16:32:02.363Z,5.2
2019-05-07T16:35:31.975Z,5.2
2019-05-07T16:39:03.201Z,5.2
2019-05-07T16:42:32.164Z,5.2
2019-05-07T16:46:02.411Z,5.7
2019-05-07T16:49:32.009Z,5.7
2019-05-07T16:53:02.809Z,5.7
2019-05-07T16:56:33.313Z,5.7
2019-05-07T17:00:02.826Z,5.7
2019-05-07T17:05:17.551Z,7.5
2019-05-07T17:08:48.498Z,7.5
2019-05-07T17:12:18.455Z,7.5
2019-05-07T17:15:48.436Z,7.5
2019-05-07T17:19:18.480Z,7.5
2019-05-07T17:22:48.478Z,8.1
2019-05-07T17:26:18.500Z,8.1
2019-05-07T17:29:49.485Z,8.1
2019-05-07T17:33:19.464Z,8.1
2019-05-07T17:36:49.457Z,8.1
2019-05-07T17:40:18.410Z,7.5
2019-05-07T17:43:47.421Z,6.1
2019-05-07T17:47:18.390Z,6.1
2019-05-07T17:50:48.533Z,6.1
2019-05-07T17:54:19.405Z,6.1
2019-05-07T18:31:09.084Z,10.1
2019-05-07T18:34:38.317Z,9.9
2019-05-07T18:38:08.293Z,9.9
2019-05-07T21:06:19.146Z,8.3
2019-05-07T21:09:48.076Z,9
2019-05-07T21:13:30.301Z,9
2019-05-07T21:16:54.065Z,9
2019-05-07T21:20:24.978Z,9
2019-05-07T21:23:54.921Z,7.7
2019-05-07T21:27:23.878Z,7.3
2019-05-07T21:30:54.905Z,7.3
2019-05-07T21:34:25.852Z,7.3
2019-05-07T21:37:57.783Z,7.3
2019-05-07T21:41:28.729Z,7.3
2019-05-07T21:45:02.060Z,8.5
2019-05-07T21:48:29.802Z,8.5
2019-05-07T21:52:01.927Z,8.5
2019-05-07T21:55:30.673Z,8.5
2019-05-07T21:59:02.830Z,8.5
